Minerva Astra — 9HDW7 — position and weather

sailwx.info

Track history (hours):
 
Tides and Currents Weather Stations Pressure Air Temp Water Temp Dewpoint Dewpoint Depression Visibility Wind Speed Wind Dir Waves Ship Positions

Minerva Astra

Last reported at 2015-Jun-22 12:29 UTC. Time now 2015-Jul-05 23:19 UTC.
Position N 45°09' W 066°01'.
Warning: this ship's position is 13 days out of date.

Length 248 m; draft 11.3 m.

Type: Tanker. MMSI: 256703000.

Date/timePositionNaut miles runAvg speedWind from/ knotsBaromVisibWave heightAir tempDewpointWater temp
2015-Jun-22 12:29N 45°09' W 066°01'0 0.0
2015-Jun-22 11:32N 45°09' W 066°01'0 0.0
2015-Jun-22 10:29N 45°09' W 066°01'0 0.2
2015-Jun-22 09:34N 45°09' W 066°01'8 7.7
2015-Jun-22 08:34N 45°01' W 066°04'1110.8
2015-Jun-22 07:33N 44°51' W 066°08'44311.3
2015-Jun-20 16:14N 37°50' W 069°09'  
2015-Jun-17 12:32N 26°48' W 079°26'1413.9
2015-Jun-17 11:33N 26°35' W 079°28'9 8.8
2015-Jun-17 10:33N 26°26' W 079°29'5 4.6
2015-Jun-17 09:27N 26°21' W 079°27'1213.8
2015-Jun-17 08:33N 26°09' W 079°28'1413.6
2015-Jun-17 07:33N 25°56' W 079°30'1413.8
2015-Jun-17 06:33N 25°42' W 079°32'  
Track history (hours):
 
Tides and Currents Weather Stations Pressure Air Temp Water Temp Dewpoint Dewpoint Depression Visibility Wind Speed Wind Dir Waves Ship Positions

Minerva Astra

Last reported at 2015-Jun-22 12:29 UTC. Time now 2015-Jul-05 23:19 UTC.
Position N 45°09' W 066°01'.
Warning: this ship's position is 13 days out of date.

Length 248 m; draft 11.3 m.

Type: Tanker. MMSI: 256703000.

Date/timePositionNaut miles runAvg speedWind from/ knotsBaromVisibWave heightAir tempDewpointWater temp
2015-Jun-22 12:29N 45°09' W 066°01'0 0.0
2015-Jun-22 11:32N 45°09' W 066°01'0 0.0
2015-Jun-22 10:29N 45°09' W 066°01'0 0.2
2015-Jun-22 09:34N 45°09' W 066°01'8 7.7
2015-Jun-22 08:34N 45°01' W 066°04'1110.8
2015-Jun-22 07:33N 44°51' W 066°08'44311.3
2015-Jun-20 16:14N 37°50' W 069°09'  
2015-Jun-17 12:32N 26°48' W 079°26'1413.9
2015-Jun-17 11:33N 26°35' W 079°28'9 8.8
2015-Jun-17 10:33N 26°26' W 079°29'5 4.6
2015-Jun-17 09:27N 26°21' W 079°27'1213.8
2015-Jun-17 08:33N 26°09' W 079°28'1413.6
2015-Jun-17 07:33N 25°56' W 079°30'1413.8
2015-Jun-17 06:33N 25°42' W 079°32'  

Dump ship's entire track history